Whitney, Mississippi
Current Conditions -  °F | °C
As of 10:55 AM on Friday 28 Nov 2014 (Local Time) from KRNV Reporting Station
Clear Clear  
Wind Chill:   Ceiling: Unl
Heat Index:   Visibility: 10mi
Dew Point:   Wind: 13mph
Humidity: 62%   Direction: 150°SSE
Pressure: 30.37"   Gusts: NA
Location:  33.8731°N, 90.5512°W
Report Text: KRNV 281655Z AUTO 15011KT 10SM CLR 08/02 A3037 RMK AO2 T00830015
Loading
Personal Weather Stations






























Interactive Weather Map New forecast layout! Learn more

10-Day Weather Forecast

Advertisements
Track Severe Weather on mobile